Aeroporto :
LOGIN :

Iscrizione | Disclaimer

   EN    FR    IT 

 










Sommario :    VFR   VFR Marginale   IFR   IFR Intensivo   IFR Molto Intensivo
Visibilità : 
Base nubi : 
>= 8 km
>= 3000ft
5 / 8 km
1000 / 3000 ft
1500m / 5 km
500 / 1000 ft
800 / 1500m
200 / 500 ft
< 800m
< 200 ft
Simboli :   Temporali  Nebbia  Neve Forte  Precipitazioni Forti  Vento > 20 kt
SIGMETs :   Varie  Temporali  Ghiacco  Turbolenza  Onda orograficha  Ceneri Vulcaniche







- Altitudine del aeroporto : 209 ft
- Codice IATA : CLY
- Carte del aeroporto


LFKC - Calvi

ULTIMO METAR :
  • 250630Z AUTO 17004KT CAVOK 18/14 Q1013 NOSIG

METARs OBSOLETI :
  • 250600Z AUTO VRB02KT CAVOK 16/14 Q1013 NOSIG
  • 250530Z AUTO VRB02KT CAVOK 14/13 Q1013 NOSIG
  • 250500Z AUTO 00000KT CAVOK 13/12 Q1013 NOSIG
  • 250430Z AUTO 17004KT CAVOK 12/11 Q1013 NOSIG
  • 250400Z AUTO 18003KT CAVOK 12/11 Q1013 NOSIG

TAF TAF LFKC
Valido dal 25 a 03 ore il 26 a 03 ore UTC


250200Z 2503/2603 VRB02KT 9999 SCT007
BECMG 2507/2509 36006KT NSC
TEMPO 2512/2516 FEW035TCU
ATIS : +33 4 95 65 82 49
Nessun NOTAM noto per questo aeroporto.



MetMap, La meteo Aeronautica in un colpo d'occhio ! - Copyright ORBIFLY Dicembre 2007 - Disclaimer

ORBIFLY MET'MAP TEAM :

Programmazione e sviluppo : Alexandra Zaïnal
Concezione e sviluppo : Baudouin d'Aumeries
Co-Programmazione e sviluppo : Marc-Olivier Méhu
Supporto tecnico e logistico : Manuel Goepfert
Aiuto per la traduzione : Arnaldo La Scala

Contatto : metmap@orbifly.com




FONTI E CREDITI :

   NOAA